Time;durP1;ratioP1;P1;durP2;ratioP2;P2;SDS_P1;SDS_P2;PMS_P1;PMS_P2;Temp;Humidity;BMP_temperature;BMP_pressure;BME280_temperature;BME280_humidity;BME280_pressure;Samples;Min_cycle;Max_cycle;Signal;HPM_P1;HPM_P2
2022/09/19 00:00:19;;;;;;;1.30;1.10;;;9.50;99.90;;;;;;5060853;28;20465;-79
2022/09/19 00:03:06;;;;;;;1.10;1.00;;;9.50;99.90;;;;;;5046532;28;20394;-79
2022/09/19 00:05:51;;;;;;;2.23;1.23;;;9.50;99.90;;;;;;5062301;28;20475;-79
2022/09/19 00:08:37;;;;;;;9.70;1.47;;;9.50;99.90;;;;;;5061189;28;20483;-79
2022/09/19 00:11:22;;;;;;;1.20;1.10;;;9.40;99.90;;;;;;5047439;28;20424;-79
2022/09/19 00:14:09;;;;;;;2.03;1.20;;;9.50;99.90;;;;;;5047466;28;20389;-79
2022/09/19 00:16:56;;;;;;;1.63;1.30;;;9.40;99.90;;;;;;5062476;28;20469;-79
2022/09/19 00:19:41;;;;;;;1.00;1.00;;;9.50;99.90;;;;;;5061840;28;20394;-78
2022/09/19 00:22:25;;;;;;;1.77;1.10;;;9.40;99.90;;;;;;5063131;28;20405;-79
2022/09/19 00:25:10;;;;;;;1.43;1.33;;;9.30;99.90;;;;;;5063541;28;20401;-78
2022/09/19 00:27:54;;;;;;;3.40;1.70;;;9.40;99.90;;;;;;5068989;28;20788;-77
2022/09/19 00:30:39;;;;;;;1.50;1.40;;;9.40;99.90;;;;;;5070877;28;20455;-76
2022/09/19 00:33:30;;;;;;;6.47;1.30;;;9.40;99.90;;;;;;5070505;28;20458;-77
2022/09/19 00:36:16;;;;;;;1.30;1.10;;;9.50;99.90;;;;;;5068999;28;20469;-76
2022/09/19 00:39:00;;;;;;;2.70;1.30;;;9.40;99.90;;;;;;5070881;28;20416;-76
2022/09/19 00:41:46;;;;;;;1.30;1.20;;;9.30;99.90;;;;;;5069744;28;20458;-76
2022/09/19 00:44:53;;;;;;;1.30;1.20;;;9.30;99.90;;;;;;5055972;28;20416;-77
2022/09/19 00:47:42;;;;;;;1.27;1.17;;;9.30;99.90;;;;;;5069259;28;20460;-77
2022/09/19 00:50:30;;;;;;;1.53;1.40;;;9.30;99.90;;;;;;5068979;28;20516;-77
2022/09/19 00:53:21;;;;;;;1.50;1.30;;;9.30;99.90;;;;;;5070617;28;20386;-77
2022/09/19 00:56:05;;;;;;;3.07;1.63;;;9.30;99.90;;;;;;5069544;28;20496;-79
2022/09/19 00:58:52;;;;;;;3.00;1.60;;;9.30;99.90;;;;;;5060868;28;20386;-80
2022/09/19 01:01:38;;;;;;;1.10;1.00;;;9.40;99.90;;;;;;5060381;28;20924;-79
2022/09/19 01:04:25;;;;;;;1.77;1.67;;;9.40;99.90;;;;;;5060770;28;20481;-79
2022/09/19 01:07:33;;;;;;;1.17;1.07;;;9.40;99.90;;;;;;5061107;28;20445;-79
2022/09/19 01:10:34;;;;;;;1.10;1.00;;;9.40;99.90;;;;;;5061496;28;20425;-79
2022/09/19 01:13:38;;;;;;;1.83;1.40;;;9.40;99.90;;;;;;5033986;28;20405;-79
2022/09/19 01:16:34;;;;;;;1.33;1.23;;;9.40;99.90;;;;;;5060583;28;20492;-79
2022/09/19 01:19:53;;;;;;;1.40;1.30;;;9.40;99.90;;;;;;5060479;28;20425;-79
2022/09/19 01:23:15;;;;;;;1.40;1.27;;;9.50;99.90;;;;;;5061135;28;20474;-78
2022/09/19 01:26:24;;;;;;;1.50;1.40;;;9.40;99.90;;;;;;5060787;28;20847;-79
2022/09/19 01:29:16;;;;;;;5.80;1.40;;;9.50;99.90;;;;;;5060594;28;20386;-79
2022/09/19 01:32:05;;;;;;;1.40;1.30;;;9.50;99.90;;;;;;5060863;28;20402;-79
2022/09/19 01:34:54;;;;;;;3.10;1.70;;;9.50;99.90;;;;;;5061438;28;20509;-77
2022/09/19 01:37:47;;;;;;;1.80;1.70;;;9.50;99.90;;;;;;5060070;28;20457;-79
2022/09/19 01:40:33;;;;;;;3.30;1.90;;;9.40;99.90;;;;;;5045633;28;20949;-79
2022/09/19 01:43:19;;;;;;;1.83;1.73;;;9.40;99.90;;;;;;5045717;28;20385;-79
2022/09/19 01:46:25;;;;;;;1.40;1.30;;;9.50;99.90;;;;;;5060398;28;20430;-79
2022/09/19 01:49:32;;;;;;;1.67;1.50;;;9.50;99.90;;;;;;5059766;28;20394;-79
2022/09/19 01:52:49;;;;;;;1.83;1.73;;;9.50;99.90;;;;;;5059094;28;20441;-81
2022/09/19 01:55:48;;;;;;;1.73;1.63;;;9.50;99.90;;;;;;5059585;28;20828;-80
2022/09/19 01:58:48;;;;;;;2.30;2.07;;;9.60;99.90;;;;;;5046045;28;20394;-80
2022/09/19 02:01:50;;;;;;;3.37;1.87;;;9.50;99.90;;;;;;5032188;28;20476;-80
2022/09/19 02:04:47;;;;;;;2.03;1.80;;;9.50;99.90;;;;;;5058542;28;20382;-80
2022/09/19 02:07:56;;;;;;;2.90;1.57;;;9.60;99.90;;;;;;5059191;28;20924;-81
2022/09/19 02:10:54;;;;;;;1.53;1.40;;;9.40;99.90;;;;;;5064413;28;20365;-80
2022/09/19 02:13:44;;;;;;;1.57;1.47;;;9.50;99.90;;;;;;5064038;28;20394;-80
2022/09/19 02:16:36;;;;;;;2.53;1.87;;;9.50;99.90;;;;;;5050604;28;20461;-79
2022/09/19 02:19:32;;;;;;;2.53;1.43;;;9.60;99.90;;;;;;5064807;28;20426;-81
2022/09/19 02:22:24;;;;;;;1.70;1.60;;;9.60;99.90;;;;;;5045632;28;20401;-77
2022/09/19 02:25:14;;;;;;;1.60;1.50;;;9.60;99.90;;;;;;5072273;28;20386;-78
2022/09/19 02:28:07;;;;;;;1.87;1.77;;;9.60;99.90;;;;;;5072199;28;20786;-77
2022/09/19 02:30:52;;;;;;;1.70;1.60;;;9.50;99.90;;;;;;5071325;28;20433;-79
2022/09/19 02:33:37;;;;;;;4.20;2.10;;;9.60;99.90;;;;;;5064474;28;20440;-81
2022/09/19 02:36:34;;;;;;;2.10;1.90;;;9.60;99.90;;;;;;5063191;28;20468;-79
2022/09/19 02:39:30;;;;;;;3.20;1.60;;;9.50;99.90;;;;;;5063241;28;20444;-80
2022/09/19 02:42:46;;;;;;;1.73;1.63;;;9.60;99.90;;;;;;5062453;28;20413;-79
2022/09/19 02:45:40;;;;;;;1.60;1.50;;;9.60;99.90;;;;;;5064377;28;20381;-80
2022/09/19 02:48:39;;;;;;;4.00;1.93;;;9.70;99.90;;;;;;5062748;28;20389;-80
2022/09/19 02:51:32;;;;;;;1.80;1.70;;;9.60;99.90;;;;;;5063091;28;20442;-80
2022/09/19 02:54:23;;;;;;;5.50;2.03;;;9.70;99.90;;;;;;5064149;28;20401;-79
2022/09/19 02:57:13;;;;;;;1.43;1.33;;;9.80;99.90;;;;;;5062443;28;20815;-80
2022/09/19 03:00:01;;;;;;;1.47;1.37;;;9.90;99.90;;;;;;5049052;28;20457;-80
2022/09/19 03:02:56;;;;;;;2.10;1.90;;;9.90;99.90;;;;;;5064854;28;20385;-79
2022/09/19 03:05:42;;;;;;;1.77;1.67;;;10.00;99.90;;;;;;5064818;28;20418;-80
2022/09/19 03:08:35;;;;;;;1.80;1.70;;;10.00;99.90;;;;;;5063117;28;20402;-80
2022/09/19 03:11:24;;;;;;;2.10;2.00;;;10.00;99.90;;;;;;5062933;28;20428;-80
2022/09/19 03:14:08;;;;;;;2.07;1.97;;;10.10;99.90;;;;;;5035256;28;20386;-80
2022/09/19 03:16:56;;;;;;;4.73;1.93;;;10.10;99.90;;;;;;5065919;28;20480;-78
2022/09/19 03:19:41;;;;;;;1.60;1.50;;;10.10;99.90;;;;;;5071115;28;20459;-78
2022/09/19 03:22:25;;;;;;;2.50;1.57;;;10.00;99.90;;;;;;5072817;28;20390;-77
2022/09/19 03:25:14;;;;;;;1.70;1.60;;;9.80;99.90;;;;;;5071283;28;20411;-78
2022/09/19 03:27:58;;;;;;;3.03;2.13;;;9.80;99.90;;;;;;5072091;28;20436;-78
2022/09/19 03:30:43;;;;;;;2.30;2.00;;;9.80;99.90;;;;;;5071929;28;20413;-78
2022/09/19 03:33:28;;;;;;;3.53;1.80;;;9.90;99.90;;;;;;5071326;28;20437;-78
2022/09/19 03:36:12;;;;;;;4.50;2.07;;;10.00;99.90;;;;;;5070506;28;20417;-76
2022/09/19 03:39:00;;;;;;;2.40;2.00;;;10.00;99.90;;;;;;5071481;28;20413;-77
2022/09/19 03:41:44;;;;;;;3.00;1.57;;;10.10;99.90;;;;;;5071380;28;20382;-76
2022/09/19 03:44:29;;;;;;;2.00;1.90;;;10.10;99.90;;;;;;5071536;28;20386;-76
2022/09/19 03:47:15;;;;;;;2.73;2.53;;;10.00;99.90;;;;;;5069837;28;20444;-78
2022/09/19 03:50:00;;;;;;;2.07;1.90;;;10.10;99.90;;;;;;5054970;28;20425;-80
2022/09/19 03:52:47;;;;;;;2.30;2.10;;;10.10;99.90;;;;;;5060588;28;20455;-80
2022/09/19 03:55:32;;;;;;;1.73;1.63;;;10.10;99.90;;;;;;5033855;28;20455;-80
2022/09/19 03:58:16;;;;;;;7.40;2.23;;;10.10;99.90;;;;;;5032227;28;20495;-80
2022/09/19 04:01:01;;;;;;;3.23;1.97;;;10.10;99.90;;;;;;5061532;28;20460;-80
2022/09/19 04:03:47;;;;;;;1.87;1.70;;;10.10;99.90;;;;;;5061186;28;20785;-80
2022/09/19 04:06:32;;;;;;;2.50;2.30;;;10.10;99.90;;;;;;5061515;28;20393;-80
2022/09/19 04:09:16;;;;;;;2.57;2.37;;;10.10;99.90;;;;;;5061725;28;20386;-80
2022/09/19 04:12:03;;;;;;;2.37;1.90;;;10.10;99.90;;;;;;5061162;28;20415;-80
2022/09/19 04:14:48;;;;;;;3.80;2.20;;;10.10;99.90;;;;;;5060830;28;20737;-79
2022/09/19 04:17:32;;;;;;;3.17;2.40;;;10.10;99.90;;;;;;5060597;28;20503;-80
2022/09/19 04:20:17;;;;;;;2.30;2.10;;;10.20;99.90;;;;;;5060371;28;20422;-80
2022/09/19 04:23:02;;;;;;;2.67;2.37;;;10.20;99.90;;;;;;5061675;28;20418;-80
2022/09/19 04:25:47;;;;;;;2.03;1.93;;;10.20;99.90;;;;;;5060575;28;20429;-79
2022/09/19 04:28:32;;;;;;;3.50;2.10;;;10.30;99.90;;;;;;5046674;28;20393;-80
2022/09/19 04:31:17;;;;;;;3.83;2.23;;;10.30;99.90;;;;;;5060290;28;20382;-80
2022/09/19 04:34:03;;;;;;;2.30;2.20;;;10.30;99.90;;;;;;5061438;28;20783;-80
2022/09/19 04:36:49;;;;;;;2.50;2.40;;;10.30;99.90;;;;;;5061260;28;20525;-79
2022/09/19 04:39:33;;;;;;;2.47;2.23;;;10.20;99.90;;;;;;5071317;28;20429;-77
2022/09/19 04:42:18;;;;;;;1.97;1.87;;;10.20;99.90;;;;;;5065933;28;20382;-79
2022/09/19 04:45:03;;;;;;;6.07;2.63;;;10.30;99.90;;;;;;5059967;28;20394;-79
2022/09/19 04:47:48;;;;;;;8.83;2.53;;;10.20;99.90;;;;;;5074018;28;20410;-79
2022/09/19 04:50:34;;;;;;;4.73;3.50;;;10.20;99.90;;;;;;5060901;28;20412;-79
2022/09/19 04:53:20;;;;;;;2.50;2.37;;;10.30;99.90;;;;;;5060992;28;20979;-79
2022/09/19 04:56:06;;;;;;;2.03;1.93;;;10.30;99.90;;;;;;5059686;28;20509;-79
2022/09/19 04:58:51;;;;;;;2.50;2.30;;;10.30;99.90;;;;;;5060256;28;20386;-79
2022/09/19 05:01:36;;;;;;;2.77;2.13;;;10.30;99.90;;;;;;5059865;28;20472;-79
2022/09/19 05:04:22;;;;;;;4.50;2.57;;;10.30;99.90;;;;;;5032078;28;20390;-79
2022/09/19 05:07:06;;;;;;;6.63;3.17;;;10.30;99.90;;;;;;5059614;28;20421;-79
2022/09/19 05:09:51;;;;;;;11.53;2.10;;;10.40;99.90;;;;;;5059035;28;20445;-79
2022/09/19 05:12:36;;;;;;;5.67;2.50;;;10.40;99.90;;;;;;5055419;28;20441;-79
2022/09/19 05:15:20;;;;;;;2.50;2.30;;;10.40;99.90;;;;;;5059365;28;20377;-79
2022/09/19 05:18:05;;;;;;;3.30;2.30;;;10.40;99.90;;;;;;5040365;28;20566;-79
2022/09/19 05:20:52;;;;;;;3.30;2.20;;;10.40;99.90;;;;;;5043150;28;20433;-79
2022/09/19 05:23:38;;;;;;;4.57;2.43;;;10.40;99.90;;;;;;5059793;28;20420;-79
2022/09/19 05:26:22;;;;;;;4.03;2.00;;;10.40;99.90;;;;;;5046007;28;20940;-79
2022/09/19 05:29:08;;;;;;;5.33;2.60;;;10.50;99.90;;;;;;5059706;28;20435;-79
2022/09/19 05:32:00;;;;;;;3.80;2.57;;;10.50;99.90;;;;;;5041778;28;20474;-80
2022/09/19 05:34:45;;;;;;;5.80;2.27;;;10.50;99.90;;;;;;5040709;28;20872;-82
2022/09/19 05:37:30;;;;;;;5.13;3.10;;;10.60;99.90;;;;;;5059842;28;20458;-78
2022/09/19 05:40:16;;;;;;;2.90;2.67;;;10.50;99.90;;;;;;5047170;28;20440;-77
2022/09/19 05:43:03;;;;;;;2.57;2.37;;;10.60;99.90;;;;;;5047213;28;20926;-79
2022/09/19 05:45:51;;;;;;;4.33;2.20;;;10.60;99.90;;;;;;5053306;28;20453;-78
2022/09/19 05:48:37;;;;;;;4.90;2.60;;;10.60;99.90;;;;;;5064867;28;20490;-78
2022/09/19 05:51:23;;;;;;;3.87;2.53;;;10.60;99.90;;;;;;5037005;28;20439;-78
2022/09/19 05:54:08;;;;;;;2.70;2.50;;;10.60;99.90;;;;;;5045031;28;20866;-78
2022/09/19 05:56:54;;;;;;;2.30;2.10;;;10.70;99.90;;;;;;5065617;28;20477;-78
2022/09/19 05:59:39;;;;;;;2.53;2.30;;;10.70;99.90;;;;;;5031262;28;20457;-80
2022/09/19 06:02:25;;;;;;;4.70;2.50;;;10.70;99.90;;;;;;5040869;28;20491;-80
2022/09/19 06:05:09;;;;;;;2.90;2.60;;;10.70;99.90;;;;;;5040172;28;20956;-80
2022/09/19 06:07:56;;;;;;;4.03;2.77;;;10.70;99.90;;;;;;5056249;28;20441;-80
2022/09/19 06:10:42;;;;;;;3.20;2.87;;;10.80;99.90;;;;;;5049328;28;21274;-80
2022/09/19 06:14:13;;;;;;;2.93;2.23;;;10.80;99.90;;;;;;5061101;28;20432;-80
2022/09/19 06:16:32;;;;;;;4.33;2.60;;;10.90;99.90;;;;;;5051773;28;20548;-80
2022/09/19 06:19:40;;;;;;;5.43;3.73;;;10.90;99.90;;;;;;5019680;28;20971;-80
2022/09/19 06:22:25;;;;;;;3.60;2.60;;;10.90;99.90;;;;;;5002160;28;20435;-80
2022/09/19 06:25:10;;;;;;;3.30;2.40;;;11.00;99.90;;;;;;5007271;28;20439;-80
2022/09/19 06:27:57;;;;;;;5.60;3.60;;;11.00;99.90;;;;;;5015060;28;20429;-79
2022/09/19 06:30:42;;;;;;;3.77;3.40;;;11.00;99.90;;;;;;5001744;28;20789;-80
2022/09/19 06:33:26;;;;;;;3.43;2.73;;;11.00;99.90;;;;;;4998823;28;20436;-80
2022/09/19 06:36:11;;;;;;;7.37;3.70;;;11.00;99.90;;;;;;5010764;28;20448;-80
2022/09/19 06:38:56;;;;;;;6.23;3.37;;;11.00;99.90;;;;;;5007062;28;20442;-80
2022/09/19 06:41:42;;;;;;;4.40;3.03;;;11.00;99.90;;;;;;5004857;28;20447;-79
2022/09/19 06:44:27;;;;;;;6.13;2.90;;;11.10;99.90;;;;;;5003503;28;20447;-80
2022/09/19 06:47:12;;;;;;;3.07;2.87;;;11.10;99.90;;;;;;5013433;28;20436;-78
2022/09/19 06:49:59;;;;;;;2.53;2.33;;;11.10;99.90;;;;;;5015614;28;21145;-78
2022/09/19 06:52:46;;;;;;;3.13;2.50;;;11.10;99.90;;;;;;5029683;28;20513;-81
2022/09/19 06:55:31;;;;;;;2.53;2.33;;;11.10;99.90;;;;;;5021794;28;20440;-80
2022/09/19 06:58:17;;;;;;;5.00;2.53;;;11.10;99.90;;;;;;5039421;28;20439;-80
2022/09/19 07:01:01;;;;;;;3.37;2.70;;;11.10;99.90;;;;;;5030683;28;20570;-80
2022/09/19 07:03:45;;;;;;;5.07;2.73;;;11.20;99.90;;;;;;5044532;28;20443;-79
2022/09/19 07:06:34;;;;;;;3.00;2.40;;;11.20;99.90;;;;;;5006959;28;20417;-78
2022/09/19 07:09:19;;;;;;;5.10;3.07;;;11.20;99.90;;;;;;5031127;28;20637;-80
2022/09/19 07:12:04;;;;;;;6.43;2.60;;;11.30;99.90;;;;;;5049549;28;21035;-80
2022/09/19 07:14:49;;;;;;;3.90;2.90;;;11.40;99.90;;;;;;5044831;28;20479;-78
2022/09/19 07:17:33;;;;;;;2.73;2.53;;;11.50;99.90;;;;;;5058769;28;20473;-80
2022/09/19 07:20:18;;;;;;;2.70;2.50;;;11.50;99.90;;;;;;5051239;28;20486;-79
2022/09/19 07:23:05;;;;;;;3.37;2.50;;;11.60;99.90;;;;;;5039874;28;20530;-79
2022/09/19 07:25:50;;;;;;;3.33;2.30;;;11.70;99.90;;;;;;5065660;28;20582;-79
2022/09/19 07:28:34;;;;;;;2.97;2.10;;;11.80;99.90;;;;;;5055802;28;20827;-79
2022/09/19 07:31:19;;;;;;;3.43;2.80;;;11.90;99.90;;;;;;5035518;28;20462;-79
2022/09/19 07:34:04;;;;;;;3.60;2.30;;;11.90;99.90;;;;;;5054434;28;20429;-79
2022/09/19 07:36:50;;;;;;;4.03;2.20;;;11.90;99.90;;;;;;5052089;28;20452;-79
2022/09/19 07:39:35;;;;;;;5.57;2.30;;;11.80;99.90;;;;;;5050708;28;20513;-79
2022/09/19 07:42:20;;;;;;;3.13;2.83;;;11.90;99.90;;;;;;5052278;28;20408;-79
2022/09/19 07:45:05;;;;;;;4.30;2.57;;;11.80;99.90;;;;;;5050474;28;20443;-81
2022/09/19 07:47:49;;;;;;;4.10;2.73;;;11.80;99.90;;;;;;5050638;28;21049;-79
2022/09/19 07:50:35;;;;;;;2.57;2.37;;;11.90;99.90;;;;;;5052343;28;20446;-78
2022/09/19 07:53:22;;;;;;;3.40;2.43;;;11.90;99.90;;;;;;5054415;28;20541;-79
2022/09/19 07:56:10;;;;;;;3.27;2.30;;;11.90;99.90;;;;;;5052472;28;20445;-79
2022/09/19 07:58:54;;;;;;;5.07;2.10;;;12.00;99.90;;;;;;5038929;28;20434;-80
2022/09/19 08:01:39;;;;;;;2.90;2.30;;;12.00;99.90;;;;;;5037425;28;20485;-79
2022/09/19 08:04:43;;;;;;;3.43;2.57;;;12.20;99.90;;;;;;5039367;28;20452;-78
2022/09/19 08:07:28;;;;;;;5.20;2.50;;;12.50;99.90;;;;;;5004354;28;20434;-78
2022/09/19 08:10:15;;;;;;;2.13;2.03;;;12.70;99.90;;;;;;4993334;28;20430;-78
2022/09/19 08:13:02;;;;;;;2.70;2.43;;;12.80;99.90;;;;;;4991764;28;20471;-79
2022/09/19 08:15:48;;;;;;;4.10;2.87;;;12.90;99.90;;;;;;4945862;28;20493;-79
2022/09/19 08:18:33;;;;;;;4.00;2.70;;;13.10;99.90;;;;;;4948355;28;20468;-80
2022/09/19 08:21:19;;;;;;;5.67;3.40;;;13.20;99.90;;;;;;4955138;28;20525;-80
2022/09/19 08:24:04;;;;;;;3.40;3.00;;;13.30;99.90;;;;;;4948669;28;20473;-79
2022/09/19 08:26:50;;;;;;;2.50;2.20;;;13.30;99.90;;;;;;4946479;28;20445;-79
2022/09/19 08:29:37;;;;;;;3.30;2.43;;;13.40;99.90;;;;;;4951281;28;20437;-81
2022/09/19 08:32:21;;;;;;;4.10;2.90;;;13.50;99.90;;;;;;4951172;28;20547;-79
2022/09/19 08:35:08;;;;;;;5.80;2.73;;;13.40;99.90;;;;;;4951957;28;21818;-79
2022/09/19 08:37:55;;;;;;;3.03;2.50;;;13.30;99.90;;;;;;4972911;28;20470;-79
2022/09/19 08:41:09;;;;;;;1.80;1.70;;;13.20;99.90;;;;;;5011527;28;20578;-80
2022/09/19 08:44:15;;;;;;;5.53;2.60;;;13.10;99.90;;;;;;5011896;28;20423;-82
2022/09/19 08:47:10;;;;;;;3.40;3.10;;;12.90;99.90;;;;;;5027919;28;20497;-81
2022/09/19 08:50:14;;;;;;;2.80;2.53;;;12.90;99.90;;;;;;5057037;28;20528;-80
2022/09/19 08:53:05;;;;;;;5.27;2.40;;;12.90;99.90;;;;;;5052059;28;20538;-80
2022/09/19 08:55:53;;;;;;;5.80;2.70;;;13.00;99.90;;;;;;5054462;28;20461;-80
2022/09/19 08:58:44;;;;;;;3.93;2.20;;;13.10;99.90;;;;;;5057259;28;20467;-80
2022/09/19 09:01:34;;;;;;;2.20;2.00;;;13.20;99.90;;;;;;5051959;28;20504;-80
2022/09/19 09:04:26;;;;;;;4.50;2.50;;;13.10;99.90;;;;;;5050073;28;20491;-80
2022/09/19 09:07:36;;;;;;;2.67;2.20;;;13.10;99.90;;;;;;5049469;28;20461;-80
2022/09/19 09:10:45;;;;;;;2.17;1.97;;;13.20;99.90;;;;;;5035841;28;21020;-80
2022/09/19 09:13:44;;;;;;;7.57;2.63;;;13.10;99.90;;;;;;5032148;28;20508;-80
2022/09/19 09:16:56;;;;;;;4.73;3.07;;;13.20;99.90;;;;;;5062471;28;20442;-80
2022/09/19 09:20:11;;;;;;;3.20;3.00;;;13.30;99.90;;;;;;5050276;28;20949;-79
2022/09/19 09:23:23;;;;;;;5.97;2.47;;;13.90;99.90;;;;;;5055768;28;20471;-78
2022/09/19 09:26:23;;;;;;;8.17;2.97;;;13.90;99.90;;;;;;5061251;28;20412;-80
2022/09/19 09:29:28;;;;;;;2.63;2.10;;;14.00;99.90;;;;;;5057618;28;20530;-78
2022/09/19 09:32:30;;;;;;;2.47;2.27;;;14.50;99.90;;;;;;5059657;28;20436;-77
2022/09/19 09:35:35;;;;;;;7.87;1.93;;;14.80;99.90;;;;;;5055246;28;20425;-80
2022/09/19 09:38:33;;;;;;;1.93;1.83;;;15.60;99.90;;;;;;5051191;28;20515;-80
2022/09/19 09:44:43;;;;;;;2.60;2.40;;;16.00;99.90;;;;;;5052969;28;20429;-80
2022/09/19 09:47:44;;;;;;;2.00;1.70;;;16.80;99.90;;;;;;5049235;28;20472;-80
2022/09/19 09:50:47;;;;;;;2.00;1.90;;;16.70;99.90;;;;;;5048859;28;20452;-80
2022/09/19 09:53:49;;;;;;;9.33;1.87;;;16.90;99.90;;;;;;5050448;28;20480;-80
2022/09/19 09:56:45;;;;;;;2.43;1.90;;;17.50;99.90;;;;;;5053613;28;20937;-80
2022/09/19 10:06:30;;;;;;;2.40;2.13;;;15.60;99.90;;;;;;5053985;28;20452;-80
2022/09/19 10:09:22;;;;;;;3.00;2.07;;;15.10;99.90;;;;;;5057413;28;20445;-79
2022/09/19 10:12:24;;;;;;;2.93;1.90;;;14.80;99.90;;;;;;5051195;28;20417;-80
2022/09/19 10:15:16;;;;;;;4.50;2.20;;;14.60;99.90;;;;;;5052166;28;20441;-79
2022/09/19 10:18:09;;;;;;;1.90;1.70;;;14.40;99.90;;;;;;5056119;28;20477;-80
2022/09/19 10:20:55;;;;;;;2.70;2.33;;;14.30;99.90;;;;;;5039879;28;20461;-80
2022/09/19 10:23:45;;;;;;;4.97;2.13;;;14.10;99.90;;;;;;5053736;28;20469;-79
2022/09/19 10:26:31;;;;;;;2.10;1.90;;;14.20;99.90;;;;;;5053996;28;20445;-78
2022/09/19 10:29:23;;;;;;;2.00;1.90;;;14.30;99.90;;;;;;5054794;28;20413;-80
2022/09/19 10:32:07;;;;;;;4.70;2.40;;;14.70;99.90;;;;;;5054665;28;20828;-76
2022/09/19 10:34:52;;;;;;;3.80;2.80;;;15.20;99.90;;;;;;5056158;28;20510;-76
2022/09/19 10:37:37;;;;;;;2.17;1.80;;;15.50;99.90;;;;;;5047830;28;20912;-78
2022/09/19 10:40:23;;;;;;;2.90;2.47;;;15.30;99.90;;;;;;5053888;28;20438;-78
2022/09/19 10:43:22;;;;;;;2.00;1.90;;;15.30;99.90;;;;;;5036438;28;20482;-79
2022/09/19 10:46:16;;;;;;;2.90;1.80;;;15.30;99.90;;;;;;5055896;28;20805;-78
2022/09/19 10:49:06;;;;;;;7.70;2.33;;;15.20;99.90;;;;;;5036644;28;20469;-78
2022/09/19 10:51:54;;;;;;;3.03;2.17;;;15.00;99.90;;;;;;5048046;28;20441;-78
2022/09/19 10:54:42;;;;;;;3.20;2.47;;;14.90;99.90;;;;;;5036425;28;20453;-78
2022/09/19 10:57:44;;;;;;;4.90;1.87;;;14.90;99.90;;;;;;5041405;28;20521;-78
2022/09/19 11:00:34;;;;;;;6.20;1.77;;;14.90;99.90;;;;;;5033050;28;20544;-77
2022/09/19 11:03:23;;;;;;;4.70;2.70;;;14.90;99.90;;;;;;5037207;28;20534;-78
2022/09/19 11:06:16;;;;;;;2.70;2.00;;;14.80;99.90;;;;;;5020767;28;20500;-78
2022/09/19 11:09:24;;;;;;;6.03;2.47;;;15.00;99.90;;;;;;5033896;28;20902;-78
2022/09/19 11:12:15;;;;;;;12.63;3.73;;;15.10;99.90;;;;;;4978292;28;20532;-77
2022/09/19 11:15:00;;;;;;;7.53;2.33;;;15.30;99.90;;;;;;4973951;28;20436;-78
2022/09/19 11:17:56;;;;;;;4.97;2.23;;;15.50;99.90;;;;;;4959098;28;20502;-78
2022/09/19 11:21:07;;;;;;;2.17;1.60;;;15.60;99.90;;;;;;4950286;28;20500;-79
2022/09/19 11:24:15;;;;;;;3.10;1.87;;;15.70;99.90;;;;;;4951004;28;20416;-80
2022/09/19 11:27:26;;;;;;;3.40;1.80;;;15.40;99.90;;;;;;5015485;28;21020;-77
2022/09/19 11:30:19;;;;;;;6.33;2.00;;;15.40;99.90;;;;;;5001009;28;20484;-78
2022/09/19 11:33:26;;;;;;;1.63;1.53;;;15.20;99.90;;;;;;4993313;28;20463;-78
2022/09/19 11:36:24;;;;;;;6.83;2.10;;;15.00;99.90;;;;;;4995474;28;20843;-78
2022/09/19 11:39:41;;;;;;;7.23;2.13;;;14.80;99.90;;;;;;4986352;28;20444;-77
2022/09/19 11:42:51;;;;;;;4.20;1.77;;;14.70;99.90;;;;;;5000136;28;20509;-77
2022/09/19 11:45:55;;;;;;;4.60;2.07;;;14.90;99.90;;;;;;5046880;28;20437;-79
2022/09/19 11:49:07;;;;;;;2.60;1.80;;;15.00;99.90;;;;;;5017584;28;20817;-77
2022/09/19 11:52:17;;;;;;;6.00;1.90;;;15.10;99.90;;;;;;5060024;28;20426;-78
2022/09/19 11:55:16;;;;;;;3.47;1.93;;;15.10;99.90;;;;;;5062489;28;20435;-78
2022/09/19 11:58:27;;;;;;;4.57;1.67;;;15.00;99.90;;;;;;5017240;28;20536;-81
2022/09/19 12:01:38;;;;;;;2.80;1.90;;;15.50;99.90;;;;;;5060387;28;20464;-78
2022/09/19 12:04:59;;;;;;;5.43;2.47;;;16.70;99.90;;;;;;4990581;28;20435;-79
2022/09/19 12:08:09;;;;;;;2.40;1.77;;;18.60;99.90;;;;;;5015316;28;20440;-79
2022/09/19 12:11:08;;;;;;;3.30;2.20;;;18.70;99.90;;;;;;5010637;28;20443;-80
2022/09/19 12:13:59;;;;;;;2.90;1.60;;;19.30;99.90;;;;;;5002558;28;20481;-79
2022/09/19 12:16:50;;;;;;;1.63;1.53;;;19.10;99.90;;;;;;5003937;28;20487;-79
2022/09/19 12:19:39;;;;;;;3.17;1.90;;;19.20;99.90;;;;;;5007203;28;20513;-80
2022/09/19 12:22:31;;;;;;;2.80;1.75;;;19.10;99.90;;;;;;4994711;28;20766;-79
2022/09/19 12:25:21;;;;;;;3.73;1.87;;;18.70;99.90;;;;;;5001938;28;20604;-80
2022/09/19 12:28:15;;;;;;;1.87;1.40;;;18.50;99.90;;;;;;5000948;28;20432;-80
2022/09/19 12:31:04;;;;;;;2.50;2.10;;;18.30;99.90;;;;;;5001987;28;20440;-79
2022/09/19 12:33:55;;;;;;;3.27;2.93;;;19.00;99.90;;;;;;5000838;28;20595;-79
2022/09/19 12:36:55;;;;;;;2.27;2.03;;;18.50;99.90;;;;;;5061252;28;20977;-78
2022/09/19 12:40:04;;;;;;;2.57;2.00;;;18.30;99.90;;;;;;5061380;28;20452;-78
2022/09/19 12:43:01;;;;;;;7.47;1.90;;;18.30;99.90;;;;;;5058412;28;20460;-78
2022/09/19 12:46:01;;;;;;;1.77;1.67;;;18.70;99.90;;;;;;5055120;28;20452;-81
2022/09/19 12:49:02;;;;;;;2.60;1.80;;;18.50;99.90;;;;;;5049796;28;20428;-82
2022/09/19 12:52:12;;;;;;;2.60;2.10;;;18.30;99.90;;;;;;5046340;28;20484;-81
2022/09/19 12:55:13;;;;;;;4.63;2.30;;;18.70;99.90;;;;;;5057731;28;20457;-79
2022/09/19 12:58:16;;;;;;;1.77;1.50;;;19.40;99.90;;;;;;5053632;28;20460;-77
2022/09/19 13:01:17;;;;;;;1.87;1.53;;;20.10;99.90;;;;;;5057826;28;20480;-79
2022/09/19 13:04:25;;;;;;;2.10;1.90;;;20.30;99.90;;;;;;5063549;28;20468;-79
2022/09/19 13:07:18;;;;;;;5.20;3.07;;;20.00;99.90;;;;;;5061432;28;20450;-79
2022/09/19 13:10:19;;;;;;;3.40;1.87;;;20.20;99.90;;;;;;5059629;28;20434;-79
2022/09/19 13:13:35;;;;;;;2.80;1.67;;;19.90;99.90;;;;;;5057303;28;20450;-80
2022/09/19 13:16:28;;;;;;;3.00;2.37;;;19.80;99.90;;;;;;5054124;28;20850;-79
2022/09/19 13:25:20;;;;;;;1.83;1.43;;;22.40;99.90;;;;;;5055709;28;20504;-81
2022/09/19 13:28:23;;;;;;;1.80;1.60;;;21.50;99.90;;;;;;5049924;28;20804;-82
2022/09/19 13:31:12;;;;;;;2.40;1.87;;;21.90;99.90;;;;;;5051327;28;20437;-81
2022/09/19 13:33:58;;;;;;;1.43;1.33;;;21.70;99.90;;;;;;5052436;28;20483;-81
2022/09/19 13:36:43;;;;;;;2.63;1.83;;;21.00;99.90;;;;;;5049912;28;20496;-80
2022/09/19 13:39:57;;;;;;;2.17;1.60;;;20.10;99.90;;;;;;5054391;28;20556;-79
2022/09/19 13:42:52;;;;;;;2.90;1.80;;;19.20;99.90;;;;;;5041321;28;20429;-82
2022/09/19 13:46:02;;;;;;;2.80;1.90;;;18.40;99.90;;;;;;5058371;28;20809;-78
2022/09/19 13:48:55;;;;;;;1.70;1.60;;;17.90;99.90;;;;;;5051844;28;20522;-82
2022/09/19 13:51:44;;;;;;;3.87;1.90;;;17.00;99.90;;;;;;5065456;28;20751;-81
2022/09/19 13:54:38;;;;;;;2.33;1.83;;;16.40;99.90;;;;;;5058449;28;20438;-81
2022/09/19 13:57:28;;;;;;;3.63;1.70;;;16.10;99.90;;;;;;5067989;28;20550;-80
2022/09/19 14:00:32;;;;;;;1.70;1.60;;;15.70;99.90;;;;;;5066384;28;20453;-82
2022/09/19 14:03:32;;;;;;;1.70;1.57;;;15.50;99.90;;;;;;5067570;28;20421;-82
2022/09/19 14:06:29;;;;;;;2.30;2.10;;;15.80;99.90;;;;;;5069327;28;20441;-82
2022/09/19 14:09:20;;;;;;;8.70;2.47;;;16.90;99.90;;;;;;5070129;28;20547;-81
2022/09/19 14:12:28;;;;;;;4.90;4.03;;;17.10;99.90;;;;;;5069297;28;20575;-82
2022/09/19 14:15:40;;;;;;;2.40;1.90;;;17.40;99.90;;;;;;5071817;28;20444;-82
2022/09/19 14:18:48;;;;;;;2.20;1.90;;;17.30;99.90;;;;;;5058141;28;20479;-81
2022/09/19 14:21:55;;;;;;;3.00;2.60;;;17.10;99.90;;;;;;5059074;28;20428;-81
2022/09/19 14:24:45;;;;;;;3.30;2.80;;;16.70;99.90;;;;;;5053738;28;20464;-80
2022/09/19 14:27:54;;;;;;;6.00;4.80;;;16.50;99.90;;;;;;5054489;28;20436;-80
2022/09/19 14:31:04;;;;;;;2.33;1.90;;;16.20;99.90;;;;;;5053526;28;20424;-80
2022/09/19 14:34:21;;;;;;;2.33;1.90;;;16.10;99.90;;;;;;5055170;28;20441;-82
2022/09/19 14:37:21;;;;;;;2.90;2.43;;;15.80;99.90;;;;;;5054258;28;20507;-82
2022/09/19 14:40:20;;;;;;;3.33;3.03;;;15.70;99.90;;;;;;5057993;28;20425;-82
2022/09/19 14:43:22;;;;;;;6.07;2.40;;;15.50;99.90;;;;;;5058613;28;20459;-82
2022/09/19 14:46:20;;;;;;;2.40;2.03;;;15.30;99.90;;;;;;5055058;28;20563;-82
2022/09/19 14:49:22;;;;;;;3.03;2.40;;;15.10;99.90;;;;;;5060217;28;20548;-81
2022/09/19 14:52:17;;;;;;;2.10;2.00;;;15.10;99.90;;;;;;5056089;28;20418;-80
2022/09/19 14:55:13;;;;;;;2.20;2.00;;;14.80;99.90;;;;;;5034036;28;20415;-82
2022/09/19 14:57:59;;;;;;;3.50;2.40;;;14.40;99.90;;;;;;5054973;28;20538;-82
2022/09/19 15:00:44;;;;;;;1.83;1.50;;;14.30;99.90;;;;;;5059669;28;20505;-82
2022/09/19 15:03:40;;;;;;;1.67;1.53;;;13.90;99.90;;;;;;5061824;28;20950;-81
2022/09/19 15:06:31;;;;;;;2.07;1.60;;;13.80;99.90;;;;;;5055287;28;20442;-81
2022/09/19 15:09:27;;;;;;;2.00;1.77;;;13.90;99.90;;;;;;5056340;28;20437;-81
2022/09/19 15:12:33;;;;;;;2.57;1.90;;;14.00;99.90;;;;;;5062894;28;20476;-82
2022/09/19 15:15:18;;;;;;;1.93;1.67;;;14.30;99.90;;;;;;5058223;28;20417;-81